Time;durP1;ratioP1;P1;durP2;ratioP2;P2;SDS_P1;SDS_P2;PMS_P1;PMS_P2;Temp;Humidity;BMP_temperature;BMP_pressure;BME280_temperature;BME280_humidity;BME280_pressure;Samples;Min_cycle;Max_cycle;Signal;HPM_P1;HPM_P2
2022/06/27 00:01:43;;;;;;;3.40;2.30;;;;;;;18.31;75.62;99292.95;104924;1273;74288;-23
2022/06/27 00:04:10;;;;;;;3.40;2.80;;;;;;;18.75;72.78;99291.61;104608;1273;62970;-23
2022/06/27 00:06:37;;;;;;;3.50;2.10;;;;;;;18.70;72.66;99292.96;104833;1273;61777;-24
2022/06/27 00:09:05;;;;;;;3.20;2.50;;;;;;;18.37;73.63;99292.83;104933;1272;75507;-23
2022/06/27 00:11:32;;;;;;;3.50;3.00;;;;;;;18.02;74.37;99294.85;105103;1271;74917;-24
2022/06/27 00:13:59;;;;;;;3.40;2.40;;;;;;;17.78;75.75;99297.30;105031;1271;74604;-23
2022/06/27 00:16:26;;;;;;;2.30;2.00;;;;;;;17.63;76.67;99293.10;104876;1271;63909;-23
2022/06/27 00:19:14;;;;;;;2.60;2.20;;;;;;;18.13;75.89;99291.10;105114;1271;63133;-23
2022/06/27 00:21:41;;;;;;;3.50;2.40;;;;;;;18.50;74.61;99294.73;105010;1272;75344;-23
2022/06/27 00:24:08;;;;;;;4.50;2.20;;;;;;;18.47;73.66;99295.70;104763;1273;77080;-24
2022/06/27 00:26:35;;;;;;;2.90;2.30;;;;;;;18.21;74.36;99294.91;104974;1273;74802;-23
2022/06/27 00:29:03;;;;;;;2.90;2.60;;;;;;;17.91;75.16;99293.59;104912;1271;61888;-23
2022/06/27 00:31:30;;;;;;;4.80;2.20;;;;;;;17.60;76.07;99296.86;104617;1273;62874;-23
2022/06/27 00:33:57;;;;;;;2.50;1.60;;;;;;;17.35;76.75;99296.95;104685;1272;75610;-23
2022/06/27 00:36:25;;;;;;;2.90;1.70;;;;;;;17.74;76.06;99292.75;104649;1273;76167;-23
2022/06/27 00:38:52;;;;;;;2.60;2.20;;;;;;;18.22;74.89;99291.88;104675;1273;75378;-24
2022/06/27 00:41:19;;;;;;;4.00;2.50;;;;;;;18.29;74.43;99290.41;104805;1273;63278;-23
2022/06/27 00:43:47;;;;;;;5.10;2.80;;;;;;;18.13;74.68;99288.64;104752;1274;63049;-23
2022/06/27 00:46:14;;;;;;;4.80;3.00;;;;;;;17.87;75.14;99291.35;105079;1273;75728;-23
2022/06/27 00:48:42;;;;;;;3.70;3.10;;;;;;;17.59;76.07;99294.34;105044;1270;77118;-24
2022/06/27 00:51:09;;;;;;;3.70;1.90;;;;;;;17.37;76.61;99294.45;104923;1271;74426;-24
2022/06/27 00:53:36;;;;;;;5.40;2.30;;;;;;;17.76;75.90;99296.96;104654;1273;61861;-24
2022/06/27 00:56:04;;;;;;;6.40;2.30;;;;;;;18.18;74.95;99301.05;104665;1270;63178;-24
2022/06/27 00:58:32;;;;;;;5.10;2.70;;;;;;;18.17;74.51;99301.17;104412;1270;76419;-24
2022/06/27 01:00:59;;;;;;;3.40;2.40;;;;;;;17.94;74.84;99304.92;104615;1273;77047;-24
2022/06/27 01:03:27;;;;;;;2.60;2.40;;;;;;;17.65;75.65;99305.13;105005;1271;75661;-24
2022/06/27 01:05:54;;;;;;;6.00;2.60;;;;;;;17.38;76.37;99307.95;104898;1273;62923;-24
2022/06/27 01:08:23;;;;;;;3.10;2.00;;;;;;;17.18;77.31;99311.28;104855;1271;62851;-24
2022/06/27 01:10:50;;;;;;;4.00;2.30;;;;;;;17.58;76.84;99308.88;104479;1273;76564;-24
2022/06/27 01:13:18;;;;;;;3.60;2.40;;;;;;;18.01;75.26;99306.30;104760;1270;77027;-24
2022/06/27 01:15:45;;;;;;;3.10;2.40;;;;;;;17.94;74.77;99307.52;104963;1270;75961;-24
2022/06/27 01:18:12;;;;;;;4.50;2.50;;;;;;;17.60;75.10;99308.03;104768;1270;61767;-24
2022/06/27 01:20:42;;;;;;;3.00;2.60;;;;;;;17.24;76.37;99310.89;104962;1271;61087;-24
2022/06/27 01:23:09;;;;;;;3.40;2.60;;;;;;;16.98;77.34;99312.30;104679;1270;75497;-24
2022/06/27 01:25:37;;;;;;;3.00;2.00;;;;;;;16.78;78.13;99315.03;104674;1270;77041;-24
2022/06/27 01:28:05;;;;;;;3.10;2.00;;;;;;;17.18;77.01;99314.98;104733;1271;75187;-24
2022/06/27 01:30:33;;;;;;;2.20;2.00;;;;;;;17.62;74.65;99313.90;104649;1271;61732;-24
2022/06/27 01:33:01;;;;;;;2.40;2.20;;;;;;;17.58;73.75;99313.23;104674;1272;61980;-24
2022/06/27 01:35:28;;;;;;;4.10;3.00;;;;;;;17.31;74.46;99314.48;104651;1273;75565;-24
2022/06/27 01:37:55;;;;;;;3.00;2.20;;;;;;;16.95;78.47;99314.73;104938;1270;75907;-24
2022/06/27 01:40:22;;;;;;;2.90;2.60;;;;;;;16.72;77.26;99311.48;104736;1270;74382;-24
2022/06/27 01:42:51;;;;;;;2.50;2.30;;;;;;;16.47;81.53;99316.07;104877;1270;64008;-24
2022/06/27 01:45:18;;;;;;;3.40;2.70;;;;;;;16.88;80.69;99315.31;105009;1272;62972;-25
2022/06/27 01:47:46;;;;;;;5.10;3.00;;;;;;;17.37;78.87;99314.07;105084;1270;76740;-24
2022/06/27 01:50:13;;;;;;;3.30;2.60;;;;;;;17.45;77.43;99315.36;104841;1271;75440;-24
2022/06/27 01:52:49;;;;;;;2.90;2.20;;;;;;;17.37;74.68;99312.82;104716;1273;75495;-24
2022/06/27 01:55:20;;;;;;;3.10;2.90;;;;;;;17.14;75.21;99309.06;104924;1273;61066;-24
2022/06/27 01:57:47;;;;;;;6.00;2.80;;;;;;;16.76;80.63;99317.70;104646;1272;63182;-25
2022/06/27 02:00:15;;;;;;;4.20;3.60;;;;;;;16.96;80.53;99315.30;104887;1273;74554;-24
2022/06/27 02:02:58;;;;;;;4.60;4.00;;;;;;;17.32;78.89;99317.38;104777;1273;76942;-24
2022/06/27 02:05:32;;;;;;;5.60;3.90;;;;;;;17.18;79.39;99314.54;104692;1273;75224;-24
2022/06/27 02:07:59;;;;;;;7.90;4.30;;;;;;;17.01;79.57;99320.69;105053;1273;63495;-24
2022/06/27 02:10:28;;;;;;;4.20;3.00;;;;;;;16.94;80.41;99317.29;105012;1273;63311;-24
2022/06/27 02:12:55;;;;;;;9.00;3.90;;;;;;;17.20;79.62;99319.14;104701;1273;75552;-24
2022/06/27 02:15:22;;;;;;;5.10;3.70;;;;;;;17.44;78.46;99319.87;104980;1273;77088;-24
2022/06/27 02:17:50;;;;;;;4.50;4.10;;;;;;;17.41;78.30;99320.04;105141;1273;75493;-24
2022/06/27 02:20:17;;;;;;;7.80;4.30;;;;;;;17.40;78.44;99321.71;104894;1273;61854;-24
2022/06/27 02:22:44;;;;;;;7.50;4.60;;;;;;;17.33;78.66;99323.60;104958;1273;63008;-25
2022/06/27 02:25:11;;;;;;;3.30;3.00;;;;;;;17.26;79.03;99325.17;104665;1273;75674;-24
2022/06/27 02:27:39;;;;;;;7.40;3.60;;;;;;;17.78;76.91;99327.41;105072;1272;76905;-24
2022/06/27 02:30:13;;;;;;;4.80;3.00;;;;;;;18.34;74.49;99330.27;104761;1272;75504;-24
2022/06/27 02:32:40;;;;;;;5.50;3.40;;;;;;;18.44;73.74;99329.52;105094;1273;61973;-24
2022/06/27 02:35:08;;;;;;;4.60;3.10;;;;;;;18.43;73.56;99326.94;105022;1273;63085;-24
2022/06/27 02:37:35;;;;;;;8.40;3.30;;;;;;;18.39;72.97;99333.05;104711;1274;75606;-24
2022/06/27 02:40:05;;;;;;;5.00;3.10;;;;;;;18.24;73.27;99338.36;105054;1273;75413;-24
2022/06/27 02:42:32;;;;;;;2.80;2.60;;;;;;;18.09;74.14;99338.77;105005;1273;75215;-24
2022/06/27 02:44:59;;;;;;;2.80;2.30;;;;;;;18.58;73.06;99342.55;104917;1273;61946;-24
2022/06/27 02:47:26;;;;;;;3.10;2.70;;;;;;;19.10;70.77;99349.06;104688;1273;63181;-24
2022/06/27 02:49:54;;;;;;;3.50;3.00;;;;;;;19.18;70.13;99348.36;104440;1273;76615;-25
2022/06/27 02:52:36;;;;;;;6.70;4.50;;;;;;;19.01;70.78;99351.58;105049;1273;76715;-24
2022/06/27 02:55:13;;;;;;;8.10;4.20;;;;;;;18.90;70.93;99348.56;104743;1272;75513;-24
2022/06/27 02:57:59;;;;;;;6.50;4.80;;;;;;;18.66;72.12;99347.33;104700;1272;61092;-24
2022/06/27 03:00:27;;;;;;;4.10;3.10;;;;;;;18.44;73.31;99348.92;104668;1273;62854;-24
2022/06/27 03:02:57;;;;;;;5.90;3.40;;;;;;;18.99;71.37;99353.50;104696;1274;75686;-24
2022/06/27 03:05:26;;;;;;;14.30;3.50;;;;;;;19.46;69.68;99355.70;104625;1275;77146;-24
2022/06/27 03:07:55;;;;;;;6.00;2.60;;;;;;;19.69;69.67;99355.56;104659;1272;74735;-24
2022/06/27 03:10:23;;;;;;;4.20;3.70;;;;;;;19.69;69.35;99355.56;104641;1272;61894;-24
2022/06/27 03:12:50;;;;;;;6.40;4.40;;;;;;;19.60;69.62;99359.79;104638;1274;62759;-25
2022/06/27 03:15:18;;;;;;;10.80;9.20;;;;;;;19.24;70.53;99357.45;104648;1273;75517;-24
2022/06/27 03:17:46;;;;;;;5.40;4.80;;;;;;;19.19;70.62;99356.09;104736;1273;76024;-24
2022/06/27 03:20:25;;;;;;;8.60;5.50;;;;;;;18.81;71.77;99359.19;104716;1271;76112;-24
2022/06/27 03:23:02;;;;;;;9.20;4.70;;;;;;;19.49;69.36;99355.91;104689;1271;63131;-24
2022/06/27 03:25:35;;;;;;;;;;;;;;;19.95;67.34;99353.08;104756;1273;62798;-24
2022/06/27 03:28:03;;;;;;;7.10;5.80;;;;;;;20.13;66.70;99353.94;104721;1273;75824;-24
2022/06/27 03:30:30;;;;;;;9.00;4.40;;;;;;;20.26;66.66;99355.20;104684;1274;77121;-24
2022/06/27 03:32:59;;;;;;;4.60;4.20;;;;;;;20.42;67.05;99358.80;104666;1271;75535;-24
2022/06/27 03:35:28;;;;;;;7.30;4.10;;;;;;;20.39;65.92;99356.98;104723;1273;63043;-24
2022/06/27 03:37:56;;;;;;;8.40;4.00;;;;;;;20.47;65.97;99357.19;104640;1274;62137;-24
2022/06/27 03:40:24;;;;;;;5.60;4.60;;;;;;;20.37;66.07;99357.55;104644;1272;74443;-24
2022/06/27 03:42:56;;;;;;;4.70;4.10;;;;;;;20.37;66.09;99360.23;104690;1273;77057;-24
2022/06/27 03:45:24;;;;;;;6.10;3.40;;;;;;;20.46;65.80;99363.04;104708;1272;75472;-24
2022/06/27 03:47:53;;;;;;;7.40;4.00;;;;;;;20.96;64.21;99365.09;104820;1273;62760;-24
2022/06/27 03:50:40;;;;;;;4.10;3.60;;;;;;;21.40;62.17;99366.77;104605;1272;62026;-24
2022/06/27 03:53:08;;;;;;;4.90;4.00;;;;;;;21.57;61.46;99369.80;104625;1273;76176;-24
2022/06/27 03:55:35;;;;;;;7.00;4.50;;;;;;;21.55;61.92;99371.88;104708;1273;76853;-24
2022/06/27 03:58:06;;;;;;;10.30;4.10;;;;;;;21.84;61.78;99370.59;104775;1273;74780;-24
2022/06/27 04:00:36;;;;;;;7.20;4.10;;;;;;;21.99;60.97;99368.59;104681;1272;62918;-24
2022/06/27 04:03:05;;;;;;;6.90;5.00;;;;;;;21.96;60.15;99367.52;104693;1273;62358;-24
2022/06/27 04:05:44;;;;;;;6.90;4.20;;;;;;;21.85;60.34;99369.24;104630;1271;76465;-24
2022/06/27 04:08:11;;;;;;;5.50;4.30;;;;;;;21.39;61.27;99369.45;104729;1271;76990;-24
2022/06/27 04:10:40;;;;;;;5.70;4.50;;;;;;;21.22;61.97;99370.20;104605;1273;74516;-24
2022/06/27 04:13:07;;;;;;;8.40;4.20;;;;;;;21.40;62.16;99370.59;104639;1273;63199;-24
2022/06/27 04:15:34;;;;;;;14.60;4.40;;;;;;;21.81;61.63;99369.54;105017;1272;62210;-24
2022/06/27 04:18:21;;;;;;;5.80;4.50;;;;;;;22.13;60.84;99369.83;104839;1271;74579;-24
2022/06/27 04:20:50;;;;;;;5.90;5.10;;;;;;;22.35;59.87;99368.97;104919;1271;75767;-24
2022/06/27 04:23:18;;;;;;;6.30;4.80;;;;;;;22.46;59.69;99366.10;104868;1273;75469;-24
2022/06/27 04:26:05;;;;;;;6.30;4.50;;;;;;;22.64;59.60;99370.75;104987;1271;62039;-24
2022/06/27 04:28:32;;;;;;;5.30;4.80;;;;;;;22.78;59.01;99368.98;104967;1273;61972;-24
2022/06/27 04:31:00;;;;;;;5.60;4.80;;;;;;;22.85;58.46;99368.08;104639;1271;76671;-24
2022/06/27 04:33:29;;;;;;;5.30;4.80;;;;;;;23.05;57.82;99372.39;104731;1273;76005;-24
2022/06/27 04:36:02;;;;;;;5.20;4.50;;;;;;;23.06;56.73;99370.88;104615;1273;75427;-24
2022/06/27 04:38:31;;;;;;;5.10;4.60;;;;;;;23.18;57.25;99371.46;104727;1271;62214;-24
2022/06/27 04:41:18;;;;;;;5.00;4.00;;;;;;;23.46;56.61;99370.98;104646;1271;61858;-24
2022/06/27 04:43:47;;;;;;;6.30;4.10;;;;;;;23.53;56.13;99372.59;104661;1274;75512;-24
2022/06/27 04:46:15;;;;;;;5.10;4.10;;;;;;;23.69;56.42;99369.73;104651;1271;76109;-24
2022/06/27 04:48:59;;;;;;;7.10;3.90;;;;;;;23.88;55.78;99375.25;104653;1272;74326;-24
2022/06/27 04:51:27;;;;;;;5.70;4.50;;;;;;;23.75;55.88;99376.94;105045;1271;61378;-24
2022/06/27 04:53:55;;;;;;;12.70;6.20;;;;;;;23.86;56.07;99377.67;104692;1271;62179;-24
2022/06/27 04:56:22;;;;;;;20.80;6.40;;;;;;;24.12;55.76;99376.73;104743;1271;75537;-24
2022/06/27 04:58:50;;;;;;;9.20;5.70;;;;;;;24.34;55.09;99372.23;104714;1271;76366;-24
2022/06/27 05:01:17;;;;;;;8.50;6.90;;;;;;;24.38;54.08;99367.91;104783;1273;75462;-24
2022/06/27 05:04:00;;;;;;;12.10;8.40;;;;;;;24.42;54.77;99370.49;104991;1273;61404;-24
2022/06/27 05:06:33;;;;;;;8.60;7.70;;;;;;;24.61;54.65;99366.80;104875;1271;63193;-24
2022/06/27 05:09:02;;;;;;;11.10;7.70;;;;;;;24.71;54.14;99368.38;104949;1274;76540;-24
2022/06/27 05:11:29;;;;;;;9.40;7.00;;;;;;;24.81;54.41;99369.05;104938;1271;77092;-23
2022/06/27 05:13:56;;;;;;;6.20;5.60;;;;;;;25.04;53.71;99368.27;104710;1271;75284;-23
2022/06/27 05:16:44;;;;;;;6.20;5.40;;;;;;;25.19;53.28;99369.56;104618;1272;62859;-23
2022/06/27 05:19:12;;;;;;;6.90;5.30;;;;;;;25.29;53.28;99372.98;104670;1272;62026;-23
2022/06/27 05:21:44;;;;;;;7.20;5.70;;;;;;;25.33;52.92;99371.16;104936;1271;75792;-23
2022/06/27 05:24:11;;;;;;;5.90;5.30;;;;;;;25.39;52.56;99370.73;104997;1272;77065;-23
2022/06/27 05:26:39;;;;;;;6.70;5.20;;;;;;;25.50;52.83;99372.65;104635;1272;74320;-23
2022/06/27 05:29:06;;;;;;;6.40;5.40;;;;;;;25.62;52.42;99371.98;104594;1274;61817;-23
2022/06/27 05:31:33;;;;;;;5.60;5.00;;;;;;;25.75;52.60;99375.94;104658;1272;63098;-23
2022/06/27 05:34:01;;;;;;;7.40;4.40;;;;;;;25.86;51.71;99372.39;104734;1272;76584;-23
2022/06/27 05:36:28;;;;;;;10.80;4.40;;;;;;;25.66;51.73;99375.25;104748;1271;77078;-25
2022/06/27 05:38:56;;;;;;;4.40;3.90;;;;;;;25.65;52.60;99374.77;104947;1271;74332;-23
2022/06/27 05:41:24;;;;;;;4.30;3.60;;;;;;;25.80;51.45;99368.95;104701;1272;61186;-23
2022/06/27 05:43:55;;;;;;;6.90;4.10;;;;;;;25.94;51.47;99366.25;104629;1273;62786;-23
2022/06/27 05:46:23;;;;;;;5.20;3.60;;;;;;;25.87;51.46;99369.05;104697;1272;74396;-24
2022/06/27 05:49:11;;;;;;;4.60;3.80;;;;;;;26.11;50.93;99370.50;104648;1273;77067;-23
2022/06/27 05:51:47;;;;;;;4.00;3.10;;;;;;;26.52;50.61;99372.30;104676;1271;75400;-23
2022/06/27 05:54:15;;;;;;;3.90;3.20;;;;;;;26.66;49.67;99375.50;104716;1272;61840;-23
2022/06/27 05:56:42;;;;;;;4.30;3.50;;;;;;;26.77;49.70;99377.61;104569;1273;62995;-23
2022/06/27 05:59:09;;;;;;;3.80;3.00;;;;;;;26.90;48.88;99381.48;104637;1272;76618;-23
2022/06/27 06:01:40;;;;;;;5.70;3.60;;;;;;;27.08;48.44;99383.33;104667;1271;77021;-23
2022/06/27 06:04:08;;;;;;;4.20;3.60;;;;;;;27.16;48.89;99385.14;104375;1272;474087;-23
2022/06/27 06:06:38;;;;;;;4.10;3.00;;;;;;;27.45;48.37;99382.25;104599;1272;63028;-23
2022/06/27 06:09:06;;;;;;;5.40;2.80;;;;;;;27.57;48.09;99385.27;104651;1272;62896;-23
2022/06/27 06:11:33;;;;;;;2.80;2.60;;;;;;;27.79;47.46;99383.65;104695;1273;75596;-23
2022/06/27 06:14:00;;;;;;;4.30;2.80;;;;;;;27.86;46.65;99389.54;104738;1271;76388;-23
2022/06/27 06:16:29;;;;;;;3.10;2.90;;;;;;;27.93;46.09;99387.04;104746;1271;73875;-22
2022/06/27 06:18:57;;;;;;;8.10;7.30;;;;;;;28.14;46.26;99386.79;105032;1271;62789;-22
2022/06/27 06:21:24;;;;;;;4.70;3.10;;;;;;;28.13;45.60;99386.69;104893;1273;62899;-22
2022/06/27 06:23:52;;;;;;;4.50;2.90;;;;;;;28.38;45.69;99385.06;104882;1271;75249;-22
2022/06/27 06:26:20;;;;;;;7.10;3.10;;;;;;;28.42;44.56;99388.52;104844;1271;76354;-22
2022/06/27 06:28:53;;;;;;;3.10;2.40;;;;;;;28.67;44.98;99387.91;105038;1271;73378;-23
2022/06/27 06:31:22;;;;;;;4.40;2.80;;;;;;;28.88;44.77;99386.81;104797;1271;63593;-23
2022/06/27 06:33:56;;;;;;;4.60;2.40;;;;;;;29.17;44.74;99390.58;104681;1271;63122;-22
2022/06/27 06:36:23;;;;;;;2.70;2.20;;;;;;;29.47;44.67;99383.89;104747;1273;75670;-22
2022/06/27 06:38:51;;;;;;;5.70;2.10;;;;;;;29.71;44.03;99385.64;104630;1271;77054;-22
2022/06/27 06:41:19;;;;;;;4.20;2.90;;;;;;;29.83;43.34;99390.06;104688;1271;74206;-23
2022/06/27 06:43:47;;;;;;;4.30;2.40;;;;;;;29.58;41.89;99387.35;104655;1272;63086;-23
2022/06/27 06:46:38;;;;;;;6.40;2.80;;;;;;;29.77;41.76;99388.84;104631;1273;62500;-23
2022/06/27 06:49:09;;;;;;;3.80;2.10;;;;;;;29.79;41.66;99390.70;104629;1271;75504;-22
2022/06/27 06:51:39;;;;;;;4.60;2.40;;;;;;;29.87;42.57;99390.66;104737;1271;77062;-23
2022/06/27 06:54:07;;;;;;;3.40;2.10;;;;;;;29.98;42.12;99387.14;104599;1274;75446;-22
2022/06/27 06:56:34;;;;;;;2.50;2.30;;;;;;;29.95;41.78;99387.73;104647;1271;61951;-22
2022/06/27 06:59:02;;;;;;;4.50;2.20;;;;;;;30.01;42.24;99385.42;104696;1273;61892;-22
2022/06/27 07:01:33;;;;;;;3.60;2.10;;;;;;;30.22;42.44;99386.33;104683;1275;77008;-21
2022/06/27 07:04:01;;;;;;;2.40;2.20;;;;;;;30.26;40.74;99386.52;104833;1271;75988;-23
2022/06/27 07:06:29;;;;;;;2.40;2.20;;;;;;;30.24;41.10;99386.17;104668;1272;75733;-22
2022/06/27 07:08:58;;;;;;;6.00;3.80;;;;;;;30.18;40.66;99388.47;104656;1271;62811;-22
2022/06/27 07:11:27;;;;;;;2.80;2.40;;;;;;;30.02;41.71;99386.49;104643;1274;62963;-24
2022/06/27 07:13:56;;;;;;;2.30;2.00;;;;;;;29.92;40.97;99393.60;104764;1272;76741;-22
2022/06/27 07:16:24;;;;;;;3.50;2.30;;;;;;;30.17;40.55;99390.23;104808;1271;76221;-22
2022/06/27 07:18:53;;;;;;;4.70;2.30;;;;;;;29.15;40.96;99391.58;104879;1271;75405;-22
2022/06/27 07:21:20;;;;;;;7.50;2.50;;;;;;;29.33;41.62;99390.79;104772;1271;62604;-22
2022/06/27 07:23:48;;;;;;;3.40;2.40;;;;;;;29.09;41.82;99389.45;104763;1272;63066;-22
2022/06/27 07:26:22;;;;;;;4.50;2.50;;;;;;;29.14;42.09;99388.16;104744;1271;76635;-22
2022/06/27 07:28:51;;;;;;;7.60;1.80;;;;;;;29.17;41.58;99387.14;104767;1271;77113;-22
2022/06/27 07:31:18;;;;;;;4.20;2.10;;;;;;;29.46;42.16;99383.94;104915;1271;75293;-22
2022/06/27 07:33:48;;;;;;;2.50;2.00;;;;;;;29.72;41.39;99386.77;104708;1271;61928;-22
2022/06/27 07:36:15;;;;;;;3.20;2.10;;;;;;;29.57;40.95;99388.27;104567;1274;62870;-22
2022/06/27 07:38:43;;;;;;;6.50;2.00;;;;;;;29.31;40.89;99384.67;104600;1272;75740;-23
2022/06/27 07:41:10;;;;;;;3.10;1.80;;;;;;;28.86;41.14;99388.48;104730;1271;77306;-23
2022/06/27 07:43:38;;;;;;;3.90;2.30;;;;;;;28.73;41.36;99392.80;104710;1273;75417;-25
2022/06/27 07:46:08;;;;;;;2.30;2.10;;;;;;;28.56;41.91;99393.07;104707;1271;61131;-25
2022/06/27 07:48:36;;;;;;;2.80;2.10;;;;;;;28.40;41.95;99390.67;104668;1271;62227;-23
2022/06/27 07:51:04;;;;;;;5.50;3.80;;;;;;;28.15;42.69;99391.98;104722;1272;75074;-24
2022/06/27 07:53:32;;;;;;;4.50;3.50;;;;;;;28.08;42.55;99392.23;104721;1272;76992;-23
2022/06/27 07:56:03;;;;;;;2.60;2.10;;;;;;;28.14;42.72;99392.14;104611;1271;74428;-23
2022/06/27 07:58:33;;;;;;;2.20;1.80;;;;;;;28.29;40.84;99392.30;104719;1271;62907;-23
2022/06/27 08:01:02;;;;;;;2.50;2.20;;;;;;;28.50;41.11;99392.71;104677;1272;62126;-23
2022/06/27 08:03:40;;;;;;;2.50;1.90;;;;;;;28.64;41.00;99391.40;104589;1271;75228;-23
2022/06/27 08:06:14;;;;;;;3.20;2.00;;;;;;;28.47;41.64;99395.35;104715;1274;76080;-23
2022/06/27 08:08:44;;;;;;;5.20;1.90;;;;;;;28.60;42.26;99398.77;104719;1271;75390;-23
2022/06/27 08:11:14;;;;;;;5.30;2.30;;;;;;;28.72;42.30;99396.11;104520;1277;63079;-23
2022/06/27 08:13:43;;;;;;;3.80;2.40;;;;;;;28.70;41.65;99397.52;104660;1271;61734;-23
2022/06/27 08:16:14;;;;;;;3.90;2.40;;;;;;;28.64;40.34;99398.79;104796;1274;75558;-23
2022/06/27 08:18:44;;;;;;;2.60;1.60;;;;;;;28.97;40.64;99393.58;104736;1271;76037;-23
2022/06/27 08:21:11;;;;;;;3.40;1.80;;;;;;;29.37;38.21;99393.05;104668;1271;75442;-23
2022/06/27 08:23:39;;;;;;;5.40;1.50;;;;;;;29.71;38.40;99392.45;104767;1271;61739;-22
2022/06/27 08:26:08;;;;;;;2.90;1.30;;;;;;;30.12;36.92;99393.95;104741;1271;62066;-23
2022/06/27 08:28:36;;;;;;;4.20;1.60;;;;;;;30.31;36.18;99396.42;104709;1271;75510;-22
2022/06/27 08:31:07;;;;;;;3.60;1.60;;;;;;;30.29;36.61;99398.17;104738;1272;76732;-22
2022/06/27 08:33:35;;;;;;;4.00;1.70;;;;;;;30.51;36.28;99394.29;104617;1274;74420;-23
2022/06/27 08:36:03;;;;;;;2.70;1.60;;;;;;;30.82;35.96;99391.46;104627;1275;61154;-22
2022/06/27 08:38:40;;;;;;;3.00;1.70;;;;;;;31.03;35.69;99397.23;104723;1274;61964;-22
2022/06/27 08:41:07;;;;;;;2.20;1.50;;;;;;;31.20;34.33;99390.65;104790;1271;75394;-22
2022/06/27 08:43:35;;;;;;;1.70;1.60;;;;;;;31.29;33.08;99391.50;104646;1272;75701;-24
2022/06/27 08:46:03;;;;;;;3.00;1.70;;;;;;;31.51;34.11;99388.89;104677;1271;75474;-23
2022/06/27 08:48:32;;;;;;;4.10;1.50;;;;;;;31.79;33.17;99388.06;104636;1271;61991;-23
2022/06/27 08:51:01;;;;;;;2.10;1.40;;;;;;;31.97;33.00;99388.05;104469;1272;62072;-22
2022/06/27 08:53:28;;;;;;;2.90;1.60;;;;;;;32.07;32.87;99389.62;104777;1271;76633;-22
2022/06/27 08:55:56;;;;;;;2.90;1.70;;;;;;;32.30;33.49;99388.41;104898;1271;77165;-22
2022/06/27 08:58:25;;;;;;;5.30;1.70;;;;;;;32.46;33.35;99393.68;104701;1271;75484;-22
2022/06/27 09:00:53;;;;;;;3.30;1.60;;;;;;;32.73;34.15;99396.91;105110;1271;62995;-23
2022/06/27 09:03:21;;;;;;;4.80;1.50;;;;;;;32.93;33.29;99394.91;104875;1271;63347;-22
2022/06/27 09:05:57;;;;;;;4.30;1.70;;;;;;;32.64;31.12;99393.11;104788;1272;75461;-22
2022/06/27 09:08:26;;;;;;;5.20;1.60;;;;;;;32.71;32.05;99397.51;104916;1271;77055;-22
2022/06/27 09:10:54;;;;;;;3.60;2.10;;;;;;;32.65;32.19;99394.30;104726;1272;73068;-22
2022/06/27 09:13:23;;;;;;;3.00;1.80;;;;;;;32.14;32.13;99398.42;104741;1273;62165;-24
2022/06/27 09:15:59;;;;;;;1.70;1.50;;;;;;;31.89;32.67;99396.06;104824;1274;63242;-24
2022/06/27 09:18:32;;;;;;;1.70;1.60;;;;;;;31.94;33.26;99394.33;105024;1274;75907;-23
2022/06/27 09:21:04;;;;;;;5.00;1.50;;;;;;;31.74;31.29;99390.23;105052;1272;76951;-23
2022/06/27 09:23:32;;;;;;;2.70;1.70;;;;;;;31.92;30.80;99385.64;104744;1271;75146;-25
2022/06/27 09:26:06;;;;;;;4.00;1.60;;;;;;;32.21;30.98;99386.90;104809;1271;63170;-25
2022/06/27 09:28:39;;;;;;;2.90;1.80;;;;;;;31.89;30.94;99389.70;104614;1271;62047;-24
2022/06/27 09:31:10;;;;;;;2.90;1.70;;;;;;;31.96;30.94;99387.93;104701;1272;77092;-24
2022/06/27 09:33:40;;;;;;;3.10;1.70;;;;;;;32.05;32.37;99385.19;104600;1276;76731;-24
2022/06/27 09:36:10;;;;;;;3.40;1.70;;;;;;;31.97;33.91;99381.64;104775;1274;74180;-24
2022/06/27 09:38:41;;;;;;;1.60;1.50;;;;;;;31.49;33.93;99375.76;104659;1272;61854;-24
2022/06/27 09:41:10;;;;;;;3.80;1.70;;;;;;;31.26;33.36;99368.11;104563;1272;61766;-24
2022/06/27 09:43:41;;;;;;;4.80;1.70;;;;;;;31.05;34.18;99370.20;104632;1271;74628;-24
2022/06/27 09:46:09;;;;;;;3.30;1.50;;;;;;;30.98;33.85;99367.22;104684;1271;77092;-24
2022/06/27 09:48:38;;;;;;;4.20;1.70;;;;;;;31.20;34.52;99369.77;104786;1271;75448;-25
2022/06/27 09:51:05;;;;;;;4.50;1.70;;;;;;;31.81;32.77;99367.89;104992;1274;62942;-24
2022/06/27 09:53:39;;;;;;;2.70;1.80;;;;;;;31.96;32.49;99364.98;104785;1271;62919;-26
2022/06/27 09:56:08;;;;;;;4.20;1.50;;;;;;;32.13;33.44;99367.56;105027;1271;76820;-24
2022/06/27 09:58:37;;;;;;;3.50;1.70;;;;;;;32.12;32.79;99364.48;104986;1272;76967;-24
2022/06/27 10:01:24;;;;;;;1.90;1.40;;;;;;;32.04;32.71;99370.05;104624;1271;75337;-24
2022/06/27 10:03:52;;;;;;;1.70;1.60;;;;;;;32.01;31.19;99370.13;104746;1272;62124;-24
2022/06/27 10:06:19;;;;;;;2.00;1.50;;;;;;;32.24;32.18;99369.36;104620;1272;63033;-24
2022/06/27 10:08:47;;;;;;;2.90;1.50;;;;;;;32.64;31.26;99365.83;104802;1271;76695;-24
2022/06/27 10:11:14;;;;;;;2.40;1.60;;;;;;;32.89;31.91;99360.86;104581;1271;76195;-24
2022/06/27 10:13:42;;;;;;;4.20;1.50;;;;;;;33.15;31.14;99360.93;104624;1272;73430;-24
2022/06/27 10:16:14;;;;;;;2.20;1.90;;;;;;;32.79;29.90;99359.64;104622;1271;61992;-24
2022/06/27 10:19:13;;;;;;;3.90;1.80;;;;;;;32.93;30.54;99356.20;104661;1273;63040;-24
2022/06/27 10:21:42;;;;;;;1.90;1.60;;;;;;;33.04;31.83;99354.70;104605;1272;76495;-24
2022/06/27 10:24:19;;;;;;;3.10;1.70;;;;;;;33.30;31.14;99353.88;104606;1275;77014;-24
2022/06/27 10:26:47;;;;;;;3.80;1.60;;;;;;;33.46;31.26;99352.73;104965;1273;75183;-24
2022/06/27 10:29:29;;;;;;;4.10;1.70;;;;;;;33.67;31.50;99348.72;104724;1273;62418;-22
2022/06/27 10:31:57;;;;;;;3.30;2.20;;;;;;;33.33;30.99;99345.61;104703;1272;62998;-23
2022/06/27 10:34:40;;;;;;;4.40;1.80;;;;;;;33.38;31.74;99348.98;104655;1272;75587;-23
2022/06/27 10:37:26;;;;;;;1.40;1.30;;;;;;;33.78;31.52;99342.98;104710;1271;75995;-23
2022/06/27 10:40:18;;;;;;;1.60;1.50;;;;;;;33.87;30.57;99340.73;104625;1271;75435;-22
2022/06/27 10:42:55;;;;;;;3.10;2.40;;;;;;;32.50;32.12;99344.21;104616;1271;61342;-23
2022/06/27 10:45:29;;;;;;;3.90;1.80;;;;;;;31.90;33.29;99345.41;104713;1275;63061;-23
2022/06/27 10:47:57;;;;;;;5.00;1.80;;;;;;;31.82;32.69;99344.33;104748;1271;76424;-23
2022/06/27 10:50:28;;;;;;;3.60;2.00;;;;;;;32.02;32.92;99344.20;104835;1271;77140;-23
2022/06/27 10:53:18;;;;;;;4.20;1.90;;;;;;;31.60;32.52;99342.59;104976;1272;74448;-23
2022/06/27 10:55:45;;;;;;;3.10;1.50;;;;;;;31.39;33.20;99343.13;104987;1272;63104;-22
2022/06/27 10:58:23;;;;;;;2.40;1.80;;;;;;;31.81;33.21;99343.73;104738;1272;61748;-23
2022/06/27 11:00:51;;;;;;;4.20;2.20;;;;;;;32.24;33.29;99346.69;104617;1272;75914;-23
2022/06/27 11:03:21;;;;;;;7.60;2.50;;;;;;;32.28;32.97;99344.70;104595;1271;74923;-23
2022/06/27 11:05:52;;;;;;;3.50;2.00;;;;;;;32.28;32.93;99341.48;104618;1273;75443;-23
2022/06/27 11:08:22;;;;;;;2.20;1.90;;;;;;;31.54;33.32;99339.14;104619;1274;62272;-23
2022/06/27 11:10:49;;;;;;;6.10;1.90;;;;;;;31.50;32.99;99339.59;104671;1274;61821;-22
2022/06/27 11:13:40;;;;;;;5.00;3.20;;;;;;;31.43;33.92;99343.41;104705;1271;76573;-23
2022/06/27 11:16:12;;;;;;;2.60;2.10;;;;;;;31.05;34.64;99341.77;104634;1271;76475;-23
2022/06/27 11:18:44;;;;;;;3.50;1.90;;;;;;;31.71;34.58;99340.20;104557;1271;74326;-23
2022/06/27 11:21:12;;;;;;;2.40;2.20;;;;;;;31.69;33.18;99337.86;104594;1273;62965;-23
2022/06/27 11:24:02;;;;;;;3.60;2.10;;;;;;;31.38;33.17;99336.27;104648;1272;61823;-22
2022/06/27 11:26:50;;;;;;;4.20;2.00;;;;;;;31.65;35.13;99334.39;104956;1271;75786;-23
2022/06/27 11:32:06;;;;;;;2.10;1.70;;;;;;;31.61;34.63;99333.82;104611;1271;75440;-23
2022/06/27 11:34:57;;;;;;;3.50;1.80;;;;;;;31.71;34.77;99331.01;104687;1271;61893;-23
2022/06/27 11:37:24;;;;;;;2.50;1.70;;;;;;;32.03;34.43;99324.47;104704;1271;61999;-22
2022/06/27 11:40:01;;;;;;;4.40;2.80;;;;;;;32.37;33.95;99319.49;105051;1272;75929;-23
2022/06/27 11:42:33;;;;;;;3.10;1.90;;;;;;;32.61;33.64;99316.57;104660;1271;75004;-23